createdAt,value
2018-09-06T00:01:47.981Z,27.70
2018-09-06T00:04:16.665Z,27.37
2018-09-06T00:06:45.150Z,26.60
2018-09-06T00:09:13.721Z,27.87
2018-09-06T00:11:42.201Z,26.00
2018-09-06T00:14:10.697Z,25.17
2018-09-06T00:16:39.237Z,26.40
2018-09-06T00:19:08.634Z,24.23
2018-09-06T00:21:38.331Z,25.47
2018-09-06T00:24:06.837Z,24.23
2018-09-06T00:26:35.289Z,26.77
2018-09-06T00:29:03.823Z,25.83
2018-09-06T00:31:32.326Z,25.43
2018-09-06T00:34:00.790Z,25.63
2018-09-06T00:36:29.362Z,25.57
2018-09-06T00:38:57.849Z,25.27
2018-09-06T00:41:26.436Z,25.93
2018-09-06T00:43:55.169Z,24.97
2018-09-06T00:46:23.686Z,25.13
2018-09-06T00:48:52.666Z,25.53
2018-09-06T00:51:21.192Z,26.47
2018-09-06T00:53:49.712Z,25.13
2018-09-06T00:56:18.216Z,23.73
2018-09-06T00:58:46.701Z,24.20
2018-09-06T01:01:15.251Z,24.23
2018-09-06T01:03:43.705Z,24.33
2018-09-06T01:06:12.165Z,24.70
2018-09-06T01:08:40.668Z,27.27
2018-09-06T01:11:09.196Z,25.20
2018-09-06T01:13:37.700Z,26.73
2018-09-06T01:16:06.866Z,27.10
2018-09-06T01:18:35.680Z,26.20
2018-09-06T01:21:04.227Z,25.03
2018-09-06T01:23:32.712Z,26.23
2018-09-06T01:26:01.549Z,25.67
2018-09-06T01:28:29.995Z,26.53
2018-09-06T01:30:58.417Z,28.13
2018-09-06T01:33:26.888Z,28.27
2018-09-06T01:36:00.801Z,27.03
2018-09-06T01:38:29.271Z,27.90
2018-09-06T01:40:57.742Z,29.13
2018-09-06T01:43:26.344Z,30.93
2018-09-06T01:45:54.904Z,27.97
2018-09-06T01:48:23.525Z,27.40
2018-09-06T01:50:52.079Z,29.47
2018-09-06T01:53:20.522Z,28.00
2018-09-06T01:55:48.973Z,26.20
2018-09-06T01:58:17.424Z,27.87
2018-09-06T02:00:46.075Z,26.60
2018-09-06T02:03:14.530Z,27.93
2018-09-06T02:05:43.229Z,26.50
2018-09-06T02:08:11.812Z,26.50
2018-09-06T02:10:40.467Z,25.50
2018-09-06T02:13:08.929Z,26.47
2018-09-06T02:15:37.335Z,27.40
2018-09-06T02:18:05.820Z,27.67
2018-09-06T02:20:34.624Z,27.13
2018-09-06T02:23:03.190Z,27.70
2018-09-06T02:25:31.748Z,25.60
2018-09-06T02:28:00.268Z,26.30
2018-09-06T02:30:28.737Z,23.93
2018-09-06T02:32:57.289Z,25.10
2018-09-06T02:35:25.734Z,26.57
2018-09-06T02:37:54.229Z,25.03
2018-09-06T02:40:27.940Z,26.93
2018-09-06T02:42:56.392Z,25.90
2018-09-06T02:45:24.880Z,28.83
2018-09-06T02:47:55.445Z,30.27
2018-09-06T02:50:29.284Z,28.97
2018-09-06T02:52:58.068Z,31.70
2018-09-06T02:55:28.133Z,30.33
2018-09-06T02:57:57.118Z,29.40
2018-09-06T03:00:28.816Z,28.13
2018-09-06T03:02:57.295Z,26.17
2018-09-06T03:05:26.551Z,30.47
2018-09-06T03:07:56.228Z,30.13
2018-09-06T03:10:25.761Z,27.93
2018-09-06T03:12:54.200Z,30.00
2018-09-06T03:15:22.726Z,28.20
2018-09-06T03:17:51.916Z,29.50
2018-09-06T03:20:20.372Z,29.97
2018-09-06T03:22:48.946Z,35.80
2018-09-06T03:25:17.376Z,31.63
2018-09-06T03:27:45.853Z,32.10
2018-09-06T03:30:14.316Z,30.33
2018-09-06T03:32:42.788Z,30.90
2018-09-06T03:35:11.276Z,34.13
2018-09-06T03:37:40.756Z,32.07
2018-09-06T03:40:09.221Z,32.00
2018-09-06T03:42:37.669Z,30.77
2018-09-06T03:45:06.188Z,29.77
2018-09-06T03:47:34.649Z,34.67
2018-09-06T03:50:03.120Z,31.73
2018-09-06T03:52:31.593Z,31.07
2018-09-06T03:55:00.406Z,30.47
2018-09-06T03:57:28.908Z,29.17
2018-09-06T03:59:57.380Z,29.83
2018-09-06T04:02:25.824Z,33.30
2018-09-06T04:04:54.340Z,36.80
2018-09-06T04:07:23.430Z,38.60
2018-09-06T04:09:51.888Z,36.33
2018-09-06T04:12:20.401Z,37.70
2018-09-06T04:14:48.957Z,34.43
2018-09-06T04:17:17.396Z,33.00
2018-09-06T04:19:45.864Z,36.10
2018-09-06T04:22:14.957Z,36.33
2018-09-06T04:24:43.519Z,35.60
2018-09-06T04:27:11.972Z,35.87
2018-09-06T04:29:40.489Z,36.67
2018-09-06T04:32:09.455Z,35.70
2018-09-06T04:34:37.932Z,35.57
2018-09-06T04:37:06.541Z,35.60
2018-09-06T04:39:35.024Z,33.87
2018-09-06T04:42:03.473Z,33.70
2018-09-06T04:44:31.941Z,34.13
2018-09-06T04:47:00.392Z,32.10
2018-09-06T04:49:28.927Z,33.77
2018-09-06T04:51:57.359Z,29.73
2018-09-06T04:54:25.787Z,30.47
2018-09-06T04:56:54.258Z,31.70
2018-09-06T04:59:22.713Z,31.87
2018-09-06T05:01:51.217Z,34.30
2018-09-06T05:04:19.781Z,32.73
2018-09-06T05:06:48.160Z,31.93
2018-09-06T05:09:16.632Z,35.10
2018-09-06T05:11:45.252Z,34.00
2018-09-06T05:14:13.685Z,34.77
2018-09-06T05:16:42.165Z,31.50
2018-09-06T05:19:10.660Z,33.43
2018-09-06T05:21:39.279Z,33.63
2018-09-06T05:24:07.772Z,35.27
2018-09-06T05:26:36.196Z,36.20
2018-09-06T05:29:04.908Z,37.00
2018-09-06T05:31:33.422Z,35.33
2018-09-06T05:34:01.864Z,37.27
2018-09-06T05:36:30.516Z,34.53
2018-09-06T05:38:58.893Z,33.50
2018-09-06T05:41:27.349Z,34.03
2018-09-06T05:43:55.836Z,35.07
2018-09-06T05:46:24.441Z,34.70
2018-09-06T05:48:53.109Z,32.77
2018-09-06T05:51:21.594Z,34.30
2018-09-06T05:53:50.033Z,35.33
2018-09-06T05:56:18.522Z,33.17
2018-09-06T05:58:47.007Z,35.13
2018-09-06T06:01:15.500Z,35.40
2018-09-06T06:03:43.977Z,33.33
2018-09-06T06:06:12.511Z,35.20
2018-09-06T06:08:44.636Z,34.60
2018-09-06T06:11:13.157Z,31.30
2018-09-06T06:13:41.866Z,31.23
2018-09-06T06:16:10.979Z,31.87
2018-09-06T06:18:39.439Z,33.30
2018-09-06T06:21:07.904Z,33.20
2018-09-06T06:23:36.948Z,35.07
2018-09-06T06:26:05.755Z,34.83
2018-09-06T06:28:34.165Z,34.90
2018-09-06T06:31:02.800Z,37.17
2018-09-06T06:33:31.464Z,37.57
2018-09-06T06:36:00.021Z,34.20
2018-09-06T06:38:28.523Z,36.00
2018-09-06T06:40:57.012Z,35.00
2018-09-06T06:43:25.524Z,39.97
2018-09-06T06:45:54.768Z,39.43
2018-09-06T06:48:23.781Z,37.73
2018-09-06T06:50:52.329Z,38.10
2018-09-06T06:53:20.967Z,41.37
2018-09-06T06:55:49.447Z,39.20
2018-09-06T06:58:17.986Z,41.80
2018-09-06T07:00:46.542Z,44.20
2018-09-06T07:03:15.317Z,43.80
2018-09-06T07:05:44.237Z,42.37
2018-09-06T07:08:12.904Z,42.10
2018-09-06T07:10:41.400Z,40.67
2018-09-06T07:13:10.264Z,45.90
2018-09-06T07:15:38.784Z,40.40
2018-09-06T07:18:07.683Z,43.07
2018-09-06T07:20:36.139Z,47.70
2018-09-06T07:23:04.555Z,47.47
2018-09-06T07:25:33.155Z,47.20
2018-09-06T07:28:02.311Z,43.03
2018-09-06T07:30:30.769Z,43.83
2018-09-06T07:32:59.186Z,44.80
2018-09-06T07:35:27.672Z,44.90
2018-09-06T07:37:56.133Z,37.27
2018-09-06T07:40:25.189Z,45.00
2018-09-06T07:42:53.682Z,41.67
2018-09-06T07:45:22.138Z,48.33
2018-09-06T07:47:50.592Z,45.13
2018-09-06T07:50:19.032Z,44.17
2018-09-06T07:52:47.497Z,46.20
2018-09-06T07:55:16.101Z,47.23
2018-09-06T07:57:44.640Z,46.70
2018-09-06T08:00:13.129Z,47.20
2018-09-06T08:02:41.590Z,45.27
2018-09-06T08:05:10.096Z,43.37
2018-09-06T08:07:38.599Z,44.90
2018-09-06T08:10:07.200Z,45.77
2018-09-06T08:12:35.692Z,42.47
2018-09-06T08:15:04.623Z,48.67
2018-09-06T08:17:33.118Z,46.77
2018-09-06T08:20:01.757Z,47.57
2018-09-06T08:22:30.276Z,47.87
2018-09-06T08:24:58.739Z,44.53
2018-09-06T08:27:27.207Z,43.67
2018-09-06T08:29:55.841Z,43.53
2018-09-06T08:32:24.460Z,43.77
2018-09-06T08:34:53.116Z,45.40
2018-09-06T08:37:21.649Z,43.60
2018-09-06T08:39:50.319Z,41.97
2018-09-06T08:42:18.801Z,40.20
2018-09-06T08:44:47.265Z,41.87
2018-09-06T08:47:15.801Z,38.73
2018-09-06T08:49:44.313Z,39.80
2018-09-06T08:52:12.826Z,38.37
2018-09-06T08:54:41.429Z,37.77
2018-09-06T08:57:09.946Z,37.27
2018-09-06T08:59:38.706Z,34.63
2018-09-06T09:02:12.233Z,34.30
2018-09-06T09:04:40.743Z,32.37
2018-09-06T09:07:09.178Z,32.00
2018-09-06T09:09:37.625Z,31.50
2018-09-06T09:12:06.720Z,30.53
2018-09-06T09:14:35.973Z,31.73
2018-09-06T09:17:04.525Z,25.70
2018-09-06T09:19:32.969Z,25.90
2018-09-06T09:22:01.538Z,25.00
2018-09-06T09:24:29.991Z,24.00
2018-09-06T09:26:58.609Z,21.90
2018-09-06T09:29:27.165Z,24.50
2018-09-06T09:31:55.612Z,24.33
2018-09-06T09:34:24.121Z,23.07
2018-09-06T09:36:52.986Z,20.10
2018-09-06T09:39:21.437Z,20.40
2018-09-06T09:41:49.966Z,23.50
2018-09-06T09:44:18.420Z,20.80
2018-09-06T09:49:14.742Z,20.83
2018-09-06T09:51:43.245Z,20.70
2018-09-06T09:54:11.694Z,19.00
2018-09-06T09:56:40.220Z,16.93
2018-09-06T09:59:08.690Z,19.30
2018-09-06T10:01:44.209Z,18.30
2018-09-06T10:04:18.221Z,16.63
2018-09-06T10:06:52.152Z,17.40
2018-09-06T10:09:22.503Z,15.63
2018-09-06T10:11:51.008Z,17.10
2018-09-06T10:14:19.666Z,17.50
2018-09-06T10:16:48.190Z,15.80
2018-09-06T10:19:17.593Z,14.83
2018-09-06T10:21:46.032Z,15.80
2018-09-06T10:24:14.604Z,14.93
2018-09-06T10:26:43.128Z,15.40
2018-09-06T10:29:11.596Z,14.03
2018-09-06T10:31:40.066Z,13.60
2018-09-06T10:34:08.500Z,13.90
2018-09-06T10:36:36.970Z,12.67
2018-09-06T10:39:08.075Z,16.03
2018-09-06T10:41:37.225Z,14.47
2018-09-06T10:44:05.744Z,12.77
2018-09-06T10:46:34.322Z,15.47
2018-09-06T10:49:02.965Z,14.40
2018-09-06T10:51:31.505Z,12.13
2018-09-06T10:53:59.955Z,12.03
2018-09-06T10:56:28.656Z,12.57
2018-09-06T10:58:57.190Z,14.10
2018-09-06T11:01:26.112Z,13.50
2018-09-06T11:03:56.052Z,12.67
2018-09-06T11:06:25.079Z,11.53
2018-09-06T11:08:53.817Z,11.03
2018-09-06T11:11:22.310Z,13.27
2018-09-06T11:13:50.872Z,12.77
2018-09-06T11:16:19.837Z,11.33
2018-09-06T11:18:48.377Z,13.30
2018-09-06T11:21:16.962Z,13.73
2018-09-06T11:23:45.340Z,12.50
2018-09-06T11:26:13.977Z,11.17
2018-09-06T11:28:43.107Z,11.90
2018-09-06T11:31:11.556Z,11.23
2018-09-06T11:33:40.082Z,11.83
2018-09-06T11:36:08.563Z,11.03
2018-09-06T11:38:37.057Z,10.30
2018-09-06T11:41:05.771Z,11.37
2018-09-06T11:43:34.386Z,10.20
2018-09-06T11:46:02.917Z,10.33
2018-09-06T11:48:31.409Z,10.47
2018-09-06T11:50:59.988Z,10.37
2018-09-06T11:53:28.540Z,10.90
2018-09-06T11:55:57.009Z,10.33
2018-09-06T11:58:25.456Z,11.03
2018-09-06T12:00:54.118Z,11.70
2018-09-06T12:03:22.544Z,11.70
2018-09-06T12:05:51.145Z,10.50
2018-09-06T12:08:19.779Z,10.50
2018-09-06T12:10:48.341Z,12.43
2018-09-06T12:13:16.765Z,12.30
2018-09-06T12:15:45.359Z,11.90
2018-09-06T12:18:13.825Z,11.10
2018-09-06T12:20:42.378Z,11.90
2018-09-06T12:23:10.869Z,11.40
2018-09-06T12:25:39.416Z,11.17
2018-09-06T12:28:07.941Z,11.77
2018-09-06T12:30:36.568Z,13.37
2018-09-06T12:33:05.072Z,12.70
2018-09-06T12:35:33.639Z,13.43
2018-09-06T12:38:02.217Z,13.20
2018-09-06T12:40:30.751Z,13.20
2018-09-06T12:42:59.296Z,12.67
2018-09-06T12:45:27.757Z,13.20
2018-09-06T12:47:56.246Z,13.30
2018-09-06T12:50:24.738Z,11.97
2018-09-06T12:52:53.342Z,13.40
2018-09-06T12:55:22.007Z,12.50
2018-09-06T12:57:50.517Z,12.93
2018-09-06T13:00:19.012Z,13.17
2018-09-06T13:02:47.519Z,12.43
2018-09-06T13:05:16.180Z,12.57
2018-09-06T13:07:44.708Z,11.73
2018-09-06T13:10:13.188Z,12.57
2018-09-06T13:12:41.646Z,13.00
2018-09-06T13:15:10.221Z,11.20
2018-09-06T13:17:38.644Z,12.73
2018-09-06T13:20:07.232Z,13.57
2018-09-06T13:22:35.655Z,13.13
2018-09-06T13:25:04.220Z,14.00
2018-09-06T13:27:32.658Z,14.00
2018-09-06T13:30:01.142Z,13.47
2018-09-06T13:32:29.589Z,15.10
2018-09-06T13:34:58.644Z,14.70
2018-09-06T13:37:27.119Z,14.20
2018-09-06T13:39:55.607Z,12.13
2018-09-06T13:42:24.073Z,13.30
2018-09-06T13:44:52.616Z,12.43
2018-09-06T13:47:21.144Z,12.30
2018-09-06T13:49:49.742Z,12.47
2018-09-06T13:52:18.311Z,11.60
2018-09-06T13:54:47.712Z,12.77
2018-09-06T13:57:16.192Z,12.10
2018-09-06T13:59:44.624Z,12.43
2018-09-06T14:02:13.110Z,10.90
2018-09-06T14:04:41.664Z,13.63
2018-09-06T14:07:10.158Z,11.73
2018-09-06T14:09:38.748Z,9.97
2018-09-06T14:12:07.587Z,10.03
2018-09-06T14:14:36.156Z,10.60
2018-09-06T14:17:04.712Z,11.33
2018-09-06T14:19:33.144Z,10.80
2018-09-06T14:22:01.966Z,11.27
2018-09-06T14:24:30.456Z,8.33
2018-09-06T14:26:59.418Z,8.70
2018-09-06T14:29:27.861Z,7.97
2018-09-06T14:31:56.345Z,7.77
2018-09-06T14:34:24.798Z,8.90
2018-09-06T14:36:53.276Z,7.60
2018-09-06T14:39:21.964Z,8.17
2018-09-06T14:41:50.407Z,7.63
2018-09-06T14:44:18.876Z,8.30
2018-09-06T14:46:47.299Z,8.57
2018-09-06T14:49:15.764Z,9.30
2018-09-06T14:51:44.221Z,7.90
2018-09-06T14:54:12.699Z,8.60
2018-09-06T14:56:41.179Z,8.70
2018-09-06T14:59:10.254Z,8.57
2018-09-06T15:01:38.789Z,8.50
2018-09-06T15:04:08.308Z,8.23
2018-09-06T15:06:36.750Z,7.63
2018-09-06T15:09:07.492Z,9.03
2018-09-06T15:11:35.972Z,8.50
2018-09-06T15:14:04.733Z,9.17
2018-09-06T15:16:33.207Z,7.40
2018-09-06T15:19:02.396Z,8.30
2018-09-06T15:21:31.009Z,7.87
2018-09-06T15:23:59.599Z,7.60
2018-09-06T15:26:28.096Z,7.33
2018-09-06T15:28:56.637Z,8.13
2018-09-06T15:31:25.185Z,9.60
2018-09-06T15:33:54.304Z,7.03
2018-09-06T15:36:22.840Z,8.27
2018-09-06T15:38:51.541Z,8.40
2018-09-06T15:41:20.038Z,7.33
2018-09-06T15:43:48.507Z,7.57
2018-09-06T15:46:17.158Z,7.43
2018-09-06T15:48:45.661Z,7.40
2018-09-06T15:51:14.260Z,6.30
2018-09-06T15:53:42.760Z,6.53
2018-09-06T15:56:11.200Z,6.83
2018-09-06T15:58:39.779Z,6.60
2018-09-06T16:01:08.293Z,6.70
2018-09-06T16:03:36.836Z,6.50
2018-09-06T16:06:06.240Z,6.57
2018-09-06T16:08:34.670Z,6.83
2018-09-06T16:11:03.137Z,6.60
2018-09-06T16:13:31.597Z,6.77
2018-09-06T16:16:00.053Z,8.60
2018-09-06T16:18:28.560Z,8.00
2018-09-06T16:20:57.092Z,6.77
2018-09-06T16:23:25.579Z,7.37
2018-09-06T16:25:54.057Z,6.00
2018-09-06T16:28:22.501Z,6.20
2018-09-06T16:30:51.013Z,6.40
2018-09-06T16:33:19.528Z,6.60
2018-09-06T16:35:48.055Z,6.17
2018-09-06T16:38:16.628Z,7.43
2018-09-06T16:40:45.053Z,6.97
2018-09-06T16:43:13.704Z,8.07
2018-09-06T16:45:42.213Z,9.10
2018-09-06T16:48:10.793Z,8.50
2018-09-06T16:50:39.331Z,7.47
2018-09-06T16:53:07.836Z,7.17
2018-09-06T16:55:36.452Z,6.33
2018-09-06T16:58:05.161Z,6.70
2018-09-06T17:00:33.657Z,7.70
2018-09-06T17:03:02.189Z,7.27
2018-09-06T17:05:30.739Z,7.13
2018-09-06T17:07:59.259Z,7.50
2018-09-06T17:10:27.890Z,7.23
2018-09-06T17:12:56.400Z,7.20
2018-09-06T17:15:25.045Z,6.53
2018-09-06T17:17:53.585Z,7.10
2018-09-06T17:20:22.157Z,7.03
2018-09-06T17:22:50.592Z,7.70
2018-09-06T17:25:19.085Z,7.00
2018-09-06T17:27:47.581Z,7.50
2018-09-06T17:30:16.099Z,7.23
2018-09-06T17:32:44.837Z,6.97
2018-09-06T17:35:13.887Z,8.53
2018-09-06T17:37:42.339Z,7.67
2018-09-06T17:40:11.594Z,7.90
2018-09-06T17:42:40.107Z,7.33
2018-09-06T17:45:08.743Z,7.37
2018-09-06T17:47:37.392Z,7.67
2018-09-06T17:50:05.887Z,7.40
2018-09-06T17:52:34.577Z,7.60
2018-09-06T17:55:03.076Z,7.67
2018-09-06T17:57:31.625Z,8.60
2018-09-06T18:00:00.212Z,7.70
2018-09-06T18:02:28.701Z,7.80
2018-09-06T18:04:57.194Z,7.30
2018-09-06T18:07:25.668Z,8.10
2018-09-06T18:09:54.164Z,7.43
2018-09-06T18:12:22.829Z,7.87
2018-09-06T18:14:51.372Z,7.70
2018-09-06T18:17:19.975Z,8.37
2018-09-06T18:19:48.576Z,9.37
2018-09-06T18:22:17.112Z,9.63
2018-09-06T18:24:46.010Z,9.77
2018-09-06T18:27:14.629Z,9.90
2018-09-06T18:29:43.188Z,9.63
2018-09-06T18:32:11.757Z,11.10
2018-09-06T18:34:40.283Z,10.67
2018-09-06T18:37:08.978Z,11.77
2018-09-06T18:39:37.919Z,11.80
2018-09-06T18:42:06.497Z,12.30
2018-09-06T18:44:34.944Z,12.87
2018-09-06T18:47:03.540Z,14.03
2018-09-06T18:49:32.164Z,13.07
2018-09-06T18:52:00.677Z,12.13
2018-09-06T18:54:30.029Z,13.30
2018-09-06T18:56:58.597Z,13.97
2018-09-06T18:59:27.131Z,13.27
2018-09-06T19:01:55.539Z,13.73
2018-09-06T19:04:23.989Z,12.80
2018-09-06T19:06:52.599Z,13.03
2018-09-06T19:09:21.193Z,13.27
2018-09-06T19:11:49.647Z,11.73
2018-09-06T19:14:18.131Z,12.50
2018-09-06T19:16:46.781Z,12.97
2018-09-06T19:19:15.310Z,11.23
2018-09-06T19:21:43.873Z,12.70
2018-09-06T19:24:12.427Z,12.87
2018-09-06T19:26:40.968Z,12.27
2018-09-06T19:29:09.558Z,12.87
2018-09-06T19:31:38.056Z,13.17
2018-09-06T19:34:07.245Z,13.07
2018-09-06T19:36:35.710Z,14.47
2018-09-06T19:39:06.289Z,12.77
2018-09-06T19:41:34.737Z,13.43
2018-09-06T19:44:04.112Z,13.37
2018-09-06T19:46:32.637Z,14.00
2018-09-06T19:49:01.113Z,14.67
2018-09-06T19:51:29.582Z,15.30
2018-09-06T19:53:58.189Z,14.13
2018-09-06T19:56:26.703Z,13.00
2018-09-06T19:58:55.207Z,13.50
2018-09-06T20:01:23.698Z,12.60
2018-09-06T20:03:52.216Z,12.87
2018-09-06T20:06:20.881Z,14.13
2018-09-06T20:08:49.360Z,13.70
2018-09-06T20:11:18.069Z,13.43
2018-09-06T20:13:46.564Z,14.43
2018-09-06T20:16:15.101Z,14.27
2018-09-06T20:18:43.609Z,13.83
2018-09-06T20:21:13.244Z,14.30
2018-09-06T20:23:41.687Z,15.83
2018-09-06T20:26:10.418Z,13.57
2018-09-06T20:28:38.893Z,14.83
2018-09-06T20:31:07.600Z,13.77
2018-09-06T20:33:36.861Z,14.67
2018-09-06T20:36:05.307Z,13.13
2018-09-06T20:38:33.799Z,13.97
2018-09-06T20:41:02.497Z,13.53
2018-09-06T20:43:31.024Z,14.90
2018-09-06T20:45:59.600Z,13.30
2018-09-06T20:48:28.088Z,14.10
2018-09-06T20:50:56.603Z,13.53
2018-09-06T20:53:25.099Z,12.80
2018-09-06T20:55:53.860Z,12.30
2018-09-06T20:58:22.416Z,13.47
2018-09-06T21:00:50.920Z,12.60
2018-09-06T21:03:19.488Z,12.07
2018-09-06T21:05:48.008Z,12.40
2018-09-06T21:08:16.516Z,11.80
2018-09-06T21:10:45.250Z,18.30
2018-09-06T21:13:15.718Z,16.57
2018-09-06T21:15:44.313Z,12.43
2018-09-06T21:18:13.087Z,13.20
2018-09-06T21:20:41.608Z,12.70
2018-09-06T21:23:10.073Z,11.67
2018-09-06T21:25:39.049Z,11.27
2018-09-06T21:28:07.749Z,10.73
2018-09-06T21:30:36.185Z,12.67
2018-09-06T21:33:04.728Z,12.37
2018-09-06T21:35:33.287Z,12.10
2018-09-06T21:38:01.843Z,13.17
2018-09-06T21:40:30.396Z,12.50
2018-09-06T21:42:59.089Z,12.97
2018-09-06T21:45:29.385Z,12.30
2018-09-06T21:47:57.885Z,11.40
2018-09-06T21:50:26.541Z,13.27
2018-09-06T21:52:55.056Z,12.93
2018-09-06T21:55:23.508Z,12.57
2018-09-06T21:57:52.000Z,12.40
2018-09-06T22:00:21.295Z,13.10
2018-09-06T22:02:55.133Z,11.87
2018-09-06T22:05:23.672Z,12.93
2018-09-06T22:07:52.100Z,14.20
2018-09-06T22:10:22.531Z,13.60
2018-09-06T22:12:52.526Z,14.87
2018-09-06T22:15:21.280Z,15.30
2018-09-06T22:17:49.844Z,14.63
2018-09-06T22:20:18.341Z,16.80
2018-09-06T22:22:46.807Z,18.43
2018-09-06T22:25:15.423Z,16.70
2018-09-06T22:27:44.164Z,18.10
2018-09-06T22:30:13.130Z,19.10
2018-09-06T22:32:41.625Z,18.90
2018-09-06T22:35:10.096Z,18.83
2018-09-06T22:37:38.556Z,19.20
2018-09-06T22:40:07.045Z,20.43
2018-09-06T22:42:35.649Z,18.57
2018-09-06T22:45:04.844Z,18.47
2018-09-06T22:47:33.285Z,18.20
2018-09-06T22:50:01.843Z,18.83
2018-09-06T22:52:30.347Z,17.70
2018-09-06T22:54:58.828Z,17.20
2018-09-06T22:57:27.336Z,18.40
2018-09-06T22:59:56.077Z,17.80
2018-09-06T23:02:28.751Z,16.80
2018-09-06T23:04:57.229Z,17.90
2018-09-06T23:07:25.749Z,16.40
2018-09-06T23:09:54.178Z,17.13
2018-09-06T23:12:22.647Z,17.90
2018-09-06T23:14:51.188Z,17.47
2018-09-06T23:17:19.663Z,20.20
2018-09-06T23:19:48.137Z,19.83
2018-09-06T23:22:16.594Z,18.93
2018-09-06T23:24:45.409Z,21.10
2018-09-06T23:27:13.959Z,20.57
2018-09-06T23:29:42.510Z,20.60
2018-09-06T23:32:10.986Z,20.37
2018-09-06T23:34:39.500Z,21.93
2018-09-06T23:37:08.146Z,21.33
2018-09-06T23:39:36.690Z,20.40
2018-09-06T23:42:05.245Z,22.47
2018-09-06T23:44:33.706Z,22.73
2018-09-06T23:47:02.139Z,21.90
2018-09-06T23:49:30.620Z,22.37
2018-09-06T23:51:59.067Z,22.87
2018-09-06T23:54:27.529Z,21.60
2018-09-06T23:56:55.998Z,20.40
2018-09-06T23:59:24.456Z,25.47
